Time;durP1;ratioP1;P1;durP2;ratioP2;P2;SDS_P1;SDS_P2;PMS_P1;PMS_P2;Temp;Humidity;BMP_temperature;BMP_pressure;BME280_temperature;BME280_humidity;BME280_pressure;Samples;Min_cycle;Max_cycle;Signal;HPM_P1;HPM_P2
2023/01/24 00:01:41;;;;;;;1999.90;999.90;;;2.70;99.90;;;;;;5057964;28;20124;-83
2023/01/24 00:04:07;;;;;;;1999.90;999.90;;;2.70;99.90;;;;;;5057798;28;20113;-82
2023/01/24 00:06:32;;;;;;;1999.90;999.90;;;2.70;99.90;;;;;;5055466;28;20040;-82
2023/01/24 00:08:58;;;;;;;1999.90;999.90;;;2.70;99.90;;;;;;5055167;28;20475;-82
2023/01/24 00:11:23;;;;;;;1999.90;999.90;;;2.70;99.90;;;;;;5054971;28;20580;-83
2023/01/24 00:13:49;;;;;;;1999.90;999.90;;;2.70;99.90;;;;;;5055241;28;20029;-83
2023/01/24 00:16:16;;;;;;;1999.90;999.90;;;2.70;99.90;;;;;;5043683;28;20061;-82
2023/01/24 00:18:41;;;;;;;1999.90;999.90;;;2.70;99.90;;;;;;5037070;28;20077;-82
2023/01/24 00:21:16;;;;;;;1999.90;999.90;;;2.70;99.90;;;;;;5054634;28;20651;-83
2023/01/24 00:23:44;;;;;;;1999.90;999.90;;;2.70;99.90;;;;;;5051727;28;20033;-83
2023/01/24 00:26:10;;;;;;;1999.90;999.90;;;2.70;99.90;;;;;;5055404;28;20478;-83
2023/01/24 00:28:35;;;;;;;1999.90;999.90;;;2.70;99.90;;;;;;5055067;28;20513;-82
2023/01/24 00:31:03;;;;;;;1999.90;999.90;;;2.70;99.90;;;;;;5056677;28;20041;-82
2023/01/24 00:33:28;;;;;;;1999.90;999.90;;;2.70;99.90;;;;;;5055288;28;20068;-82
2023/01/24 00:35:54;;;;;;;1999.90;999.90;;;2.70;99.90;;;;;;5054979;28;20522;-82
2023/01/24 00:38:21;;;;;;;1999.90;999.90;;;2.70;99.90;;;;;;5056534;28;20042;-82
2023/01/24 00:40:46;;;;;;;1999.90;999.90;;;2.70;99.90;;;;;;5056460;28;20573;-82
2023/01/24 00:43:12;;;;;;;1999.90;999.90;;;2.70;99.90;;;;;;5061181;28;20045;-82
2023/01/24 00:45:38;;;;;;;1999.90;999.90;;;2.70;99.90;;;;;;5062139;28;20037;-82
2023/01/24 00:48:05;;;;;;;1999.90;999.90;;;2.70;99.90;;;;;;5063286;28;20093;-82
2023/01/24 00:50:31;;;;;;;1999.90;999.90;;;2.70;99.90;;;;;;5061283;28;20041;-83
2023/01/24 00:52:57;;;;;;;1999.90;999.90;;;2.70;99.90;;;;;;5062058;28;20510;-82
2023/01/24 00:55:22;;;;;;;1999.90;999.90;;;2.70;99.90;;;;;;5063134;28;20045;-82
2023/01/24 00:57:48;;;;;;;1999.90;999.90;;;2.70;99.90;;;;;;5063054;28;20487;-81
2023/01/24 01:00:14;;;;;;;1999.90;999.90;;;2.70;99.90;;;;;;5063330;28;20459;-82
2023/01/24 01:02:39;;;;;;;1999.90;999.90;;;2.60;99.90;;;;;;5061972;28;20866;-82
2023/01/24 01:05:05;;;;;;;1999.90;999.90;;;2.70;99.90;;;;;;5062985;28;20036;-82
2023/01/24 01:07:31;;;;;;;1999.90;999.90;;;2.60;99.90;;;;;;5062369;28;20124;-82
2023/01/24 01:09:57;;;;;;;1999.90;999.90;;;2.70;99.90;;;;;;5062343;28;20128;-82
2023/01/24 01:12:23;;;;;;;1999.90;999.90;;;2.70;99.90;;;;;;5062636;28;20064;-82
2023/01/24 01:14:48;;;;;;;1999.90;999.90;;;2.70;99.90;;;;;;5063123;28;20029;-82
2023/01/24 01:17:14;;;;;;;1999.90;999.90;;;2.70;99.90;;;;;;5061783;28;20037;-82
2023/01/24 01:19:40;;;;;;;1999.90;999.90;;;2.70;99.90;;;;;;5062017;28;20044;-82
2023/01/24 01:22:05;;;;;;;1999.90;999.90;;;2.70;99.90;;;;;;5063602;28;20064;-82
2023/01/24 01:24:31;;;;;;;1999.90;999.90;;;2.70;99.90;;;;;;5067876;28;20111;-82
2023/01/24 01:26:57;;;;;;;1999.90;999.90;;;2.60;99.90;;;;;;5068587;28;20063;-83
2023/01/24 01:29:22;;;;;;;1999.90;999.90;;;2.70;99.90;;;;;;5076145;28;20025;-82
2023/01/24 01:31:48;;;;;;;1999.90;999.90;;;2.70;99.90;;;;;;5067920;28;20037;-81
2023/01/24 01:34:13;;;;;;;1999.90;999.90;;;2.70;99.90;;;;;;5059385;28;20026;-82
2023/01/24 01:36:39;;;;;;;1999.90;999.90;;;2.70;99.90;;;;;;5059260;28;20112;-83
2023/01/24 01:39:04;;;;;;;1999.90;999.90;;;2.70;99.90;;;;;;5059373;28;20030;-82
2023/01/24 01:41:31;;;;;;;1999.90;999.90;;;2.70;99.90;;;;;;5059077;28;20120;-82
2023/01/24 01:46:49;;;;;;;1999.90;999.90;;;2.70;99.90;;;;;;5060949;28;20030;-83
2023/01/24 01:49:21;;;;;;;1999.90;999.90;;;2.70;99.90;;;;;;5060567;28;20064;-82
2023/01/24 01:51:50;;;;;;;1999.90;999.90;;;2.70;99.90;;;;;;5060463;28;20119;-82
2023/01/24 01:54:27;;;;;;;1999.90;999.90;;;2.70;99.90;;;;;;5056704;28;20903;-81
2023/01/24 01:57:07;;;;;;;1999.90;999.90;;;2.70;99.90;;;;;;5057156;28;20048;-82
2023/01/24 01:59:38;;;;;;;1999.90;999.90;;;2.70;99.90;;;;;;5056338;28;20040;-83
2023/01/24 02:02:09;;;;;;;1999.90;999.90;;;2.60;99.90;;;;;;5055804;28;20033;-82
2023/01/24 02:04:39;;;;;;;1999.90;999.90;;;2.70;99.90;;;;;;5055714;28;20030;-83
2023/01/24 02:07:20;;;;;;;1999.90;999.90;;;2.60;99.90;;;;;;5055529;28;20033;-82
2023/01/24 02:09:48;;;;;;;1999.90;999.90;;;2.60;99.90;;;;;;5057254;28;20033;-82
2023/01/24 02:12:19;;;;;;;1999.90;999.90;;;2.70;99.90;;;;;;5055548;28;20037;-83
2023/01/24 02:17:32;;;;;;;1999.90;999.90;;;2.60;99.90;;;;;;5056941;28;20510;-83
2023/01/24 02:20:18;;;;;;;1999.90;999.90;;;2.60;99.90;;;;;;5055337;28;20030;-82
2023/01/24 02:23:02;;;;;;;1999.90;999.90;;;2.60;99.90;;;;;;5055604;28;20033;-82
2023/01/24 02:25:34;;;;;;;1999.90;999.90;;;2.60;99.90;;;;;;5055324;28;20109;-83
2023/01/24 02:28:02;;;;;;;1999.90;999.90;;;2.60;99.90;;;;;;5055365;28;20092;-82
2023/01/24 02:30:28;;;;;;;1999.90;999.90;;;2.60;99.90;;;;;;5054509;28;20037;-83
2023/01/24 02:32:53;;;;;;;1999.90;999.90;;;2.60;99.90;;;;;;5055521;28;20086;-83
2023/01/24 02:35:30;;;;;;;1999.90;999.90;;;2.60;99.90;;;;;;5056704;28;20038;-82
2023/01/24 02:38:00;;;;;;;1999.90;999.90;;;2.60;99.90;;;;;;5055641;28;20042;-82
2023/01/24 02:40:28;;;;;;;1999.90;999.90;;;2.60;99.90;;;;;;5055292;28;20034;-82
2023/01/24 02:42:57;;;;;;;1999.90;999.90;;;2.60;99.90;;;;;;5055512;28;20064;-82
2023/01/24 02:45:26;;;;;;;1999.90;999.90;;;2.60;99.90;;;;;;5056364;28;20029;-83
2023/01/24 02:47:55;;;;;;;1999.90;999.90;;;2.70;99.90;;;;;;5057883;28;20041;-82
2023/01/24 02:50:23;;;;;;;1999.90;999.90;;;2.70;99.90;;;;;;5055034;28;20462;-82
2023/01/24 02:55:33;;;;;;;1999.90;999.90;;;2.60;99.90;;;;;;5056940;28;20037;-83
2023/01/24 02:58:08;;;;;;;1999.90;999.90;;;2.70;99.90;;;;;;5055903;28;20038;-82
2023/01/24 03:00:40;;;;;;;1999.90;999.90;;;2.70;99.90;;;;;;5054495;28;20499;-83
2023/01/24 03:03:07;;;;;;;1999.90;999.90;;;2.70;99.90;;;;;;5054616;28;20037;-83
2023/01/24 03:05:46;;;;;;;1999.90;999.90;;;2.70;99.90;;;;;;5055560;28;20056;-82
2023/01/24 03:08:12;;;;;;;1999.90;999.90;;;2.70;99.90;;;;;;5056050;28;20033;-83
2023/01/24 03:10:37;;;;;;;1999.90;999.90;;;2.70;99.90;;;;;;5054315;28;20030;-82
2023/01/24 03:34:55;;;;;;;1999.90;999.90;;;2.60;99.90;;;;;;5056012;28;20108;-82
2023/01/24 03:40:14;;;;;;;1999.90;999.90;;;2.60;99.90;;;;;;5056672;28;20064;-82
2023/01/24 03:42:49;;;;;;;1999.90;999.90;;;2.70;99.90;;;;;;5054656;28;20044;-82
2023/01/24 03:45:42;;;;;;;1999.90;999.90;;;2.70;99.90;;;;;;5054302;28;20034;-82
2023/01/24 03:48:15;;;;;;;1999.90;999.90;;;2.60;99.90;;;;;;5054027;28;20035;-82
2023/01/24 03:53:29;;;;;;;1999.90;999.90;;;2.70;99.90;;;;;;5053703;28;20065;-82
2023/01/24 03:56:00;;;;;;;1999.90;999.90;;;2.70;99.90;;;;;;5057267;28;20752;-81
2023/01/24 03:58:27;;;;;;;1999.90;999.90;;;2.60;99.90;;;;;;5056756;28;20060;-82
2023/01/24 04:00:54;;;;;;;1999.90;999.90;;;2.60;99.90;;;;;;5057137;28;20510;-81
2023/01/24 04:03:20;;;;;;;1999.90;999.90;;;2.60;99.90;;;;;;5055568;28;20534;-81
2023/01/24 04:05:47;;;;;;;1999.90;999.90;;;2.70;99.90;;;;;;5056424;28;20072;-81
2023/01/24 04:08:12;;;;;;;1999.90;999.90;;;2.60;99.90;;;;;;5055022;28;20139;-80
2023/01/24 04:10:38;;;;;;;1999.90;999.90;;;2.60;99.90;;;;;;5055282;28;20041;-81
2023/01/24 04:13:03;;;;;;;1999.90;999.90;;;2.60;99.90;;;;;;5054225;28;20038;-81
2023/01/24 04:15:31;;;;;;;1999.90;999.90;;;2.70;99.90;;;;;;5055280;28;20095;-82
2023/01/24 04:17:58;;;;;;;1999.90;999.90;;;2.60;99.90;;;;;;5053163;28;20036;-81
2023/01/24 04:20:27;;;;;;;1999.90;999.90;;;2.60;99.90;;;;;;5055461;28;20053;-81
2023/01/24 04:22:52;;;;;;;1999.90;999.90;;;2.70;99.90;;;;;;5054317;28;20038;-81
2023/01/24 04:25:18;;;;;;;1999.90;999.90;;;2.70;99.90;;;;;;5054240;28;20487;-81
2023/01/24 04:27:44;;;;;;;1999.90;999.90;;;2.70;99.90;;;;;;5054179;28;20209;-82
2023/01/24 04:30:12;;;;;;;1999.90;999.90;;;2.70;99.90;;;;;;5053832;28;20041;-81
2023/01/24 04:32:38;;;;;;;1999.90;999.90;;;2.60;99.90;;;;;;5055828;28;20033;-81
2023/01/24 04:35:05;;;;;;;1999.90;999.90;;;2.60;99.90;;;;;;5055630;28;20116;-82
2023/01/24 04:37:32;;;;;;;1999.90;999.90;;;2.70;99.90;;;;;;5054298;28;20029;-81
2023/01/24 04:39:58;;;;;;;1999.90;999.90;;;2.70;99.90;;;;;;5054301;28;20034;-81
2023/01/24 04:42:24;;;;;;;1999.90;999.90;;;2.60;99.90;;;;;;5056924;28;20495;-81
2023/01/24 04:44:49;;;;;;;1999.90;999.90;;;2.60;99.90;;;;;;5055325;28;20030;-82
2023/01/24 04:47:15;;;;;;;1999.90;999.90;;;2.60;99.90;;;;;;5055569;28;20044;-81
2023/01/24 04:49:41;;;;;;;1999.90;999.90;;;2.60;99.90;;;;;;5056234;28;20073;-81
2023/01/24 04:52:10;;;;;;;1999.90;999.90;;;2.80;99.90;;;;;;5057271;28;20034;-81
2023/01/24 04:54:35;;;;;;;1999.90;999.90;;;2.60;99.90;;;;;;5055046;28;20495;-81
2023/01/24 04:57:01;;;;;;;1999.90;999.90;;;2.60;99.90;;;;;;5054927;28;20041;-81
2023/01/24 04:59:26;;;;;;;1999.90;999.90;;;2.60;99.90;;;;;;5054180;28;20043;-82
2023/01/24 05:01:52;;;;;;;1999.90;999.90;;;2.60;99.90;;;;;;5054700;28;20037;-82
2023/01/24 05:04:18;;;;;;;1999.90;999.90;;;2.60;99.90;;;;;;5054167;28;20085;-82
2023/01/24 05:06:43;;;;;;;1999.90;999.90;;;2.60;99.90;;;;;;5053997;28;20038;-81
2023/01/24 05:09:09;;;;;;;1999.90;999.90;;;2.60;99.90;;;;;;5054072;28;20029;-81
2023/01/24 05:11:36;;;;;;;1999.90;999.90;;;2.60;99.90;;;;;;5055589;28;20034;-81
2023/01/24 05:14:01;;;;;;;1999.90;999.90;;;2.60;99.90;;;;;;5056214;28;20124;-82
2023/01/24 05:16:26;;;;;;;1999.90;999.90;;;2.60;99.90;;;;;;5054152;28;20033;-82
2023/01/24 05:18:52;;;;;;;1999.90;999.90;;;2.60;99.90;;;;;;5054740;28;20105;-82
2023/01/24 05:21:18;;;;;;;1999.90;999.90;;;2.60;99.90;;;;;;5053918;28;20482;-82
2023/01/24 05:23:51;;;;;;;1999.90;999.90;;;2.60;99.90;;;;;;5056372;28;20518;-81
2023/01/24 05:26:18;;;;;;;1999.90;999.90;;;2.60;99.90;;;;;;5056236;28;20045;-81
2023/01/24 05:28:44;;;;;;;1999.90;999.90;;;2.60;99.90;;;;;;5058083;28;20487;-82
2023/01/24 05:31:09;;;;;;;1999.90;999.90;;;2.60;99.90;;;;;;5057805;28;20033;-81
2023/01/24 05:33:36;;;;;;;1999.90;999.90;;;2.60;99.90;;;;;;5058205;28;20029;-81
2023/01/24 05:36:16;;;;;;;1999.90;999.90;;;2.60;99.90;;;;;;5058142;28;20044;-81
2023/01/24 05:38:43;;;;;;;1999.90;999.90;;;2.60;99.90;;;;;;5057878;28;20395;-81
2023/01/24 05:41:10;;;;;;;1999.90;999.90;;;2.60;99.90;;;;;;5057656;28;20038;-81
2023/01/24 05:43:37;;;;;;;1999.90;999.90;;;2.60;99.90;;;;;;5057775;28;20029;-81
2023/01/24 05:46:15;;;;;;;1999.90;999.90;;;2.60;99.90;;;;;;5059229;28;20045;-81
2023/01/24 05:48:46;;;;;;;1999.90;999.90;;;2.60;99.90;;;;;;5057663;28;20056;-81
2023/01/24 05:51:14;;;;;;;1999.90;999.90;;;2.60;99.90;;;;;;5057778;28;20049;-81
2023/01/24 05:53:41;;;;;;;1999.90;999.90;;;2.70;99.90;;;;;;5059571;28;20053;-81
2023/01/24 05:56:12;;;;;;;1999.90;999.90;;;2.70;99.90;;;;;;5058166;28;20065;-81
2023/01/24 05:58:37;;;;;;;1999.90;999.90;;;2.70;99.90;;;;;;5041249;28;20395;-81
2023/01/24 06:01:08;;;;;;;1999.90;999.90;;;2.60;99.90;;;;;;5038083;28;20042;-82
2023/01/24 06:03:34;;;;;;;1999.90;999.90;;;2.70;99.90;;;;;;5039892;28;20093;-81
2023/01/24 06:06:00;;;;;;;1999.90;999.90;;;2.70;99.90;;;;;;5038285;28;20044;-81
2023/01/24 06:08:25;;;;;;;1999.90;999.90;;;2.70;99.90;;;;;;5036015;28;20041;-81
2023/01/24 06:10:51;;;;;;;1999.90;999.90;;;2.70;99.90;;;;;;5035444;28;20132;-81
2023/01/24 06:13:16;;;;;;;1999.90;999.90;;;2.70;99.90;;;;;;5039536;28;20034;-81
2023/01/24 06:15:42;;;;;;;1999.90;999.90;;;2.70;99.90;;;;;;5038212;28;20045;-81
2023/01/24 06:18:14;;;;;;;1999.90;999.90;;;2.70;99.90;;;;;;5039894;28;20041;-81
2023/01/24 06:20:39;;;;;;;1999.90;999.90;;;2.70;99.90;;;;;;5038276;28;20058;-81
2023/01/24 06:23:07;;;;;;;1999.90;999.90;;;2.70;99.90;;;;;;5042623;28;20037;-82
2023/01/24 06:25:33;;;;;;;1999.90;999.90;;;2.70;99.90;;;;;;5039658;28;20084;-82
2023/01/24 06:27:59;;;;;;;1999.90;999.90;;;2.70;99.90;;;;;;5039244;28;20069;-81
2023/01/24 06:30:25;;;;;;;1999.90;999.90;;;2.70;99.90;;;;;;5039840;28;20538;-81
2023/01/24 06:33:20;;;;;;;1999.90;999.90;;;2.60;99.90;;;;;;5039756;28;20033;-80
2023/01/24 06:35:48;;;;;;;1999.90;999.90;;;2.70;99.90;;;;;;5037993;28;20045;-80
2023/01/24 06:38:20;;;;;;;1999.90;999.90;;;2.70;99.90;;;;;;5039773;28;20078;-80
2023/01/24 06:40:45;;;;;;;1999.90;999.90;;;2.70;99.90;;;;;;5039322;28;20038;-80
2023/01/24 06:43:11;;;;;;;1999.90;999.90;;;2.70;99.90;;;;;;5038453;28;20060;-80
2023/01/24 06:45:37;;;;;;;1999.90;999.90;;;2.70;99.90;;;;;;5038756;28;20041;-80
2023/01/24 06:48:04;;;;;;;1999.90;999.90;;;2.70;99.90;;;;;;5040194;28;20037;-80
2023/01/24 06:50:31;;;;;;;1999.90;999.90;;;2.70;99.90;;;;;;5039701;28;20065;-81
2023/01/24 06:52:57;;;;;;;1999.90;999.90;;;2.70;99.90;;;;;;5041035;28;20053;-80
2023/01/24 06:55:23;;;;;;;1999.90;999.90;;;2.70;99.90;;;;;;5040136;28;20061;-80
2023/01/24 06:57:59;;;;;;;1999.90;999.90;;;2.70;99.90;;;;;;5045049;28;20508;-81
2023/01/24 07:00:25;;;;;;;1999.90;999.90;;;2.70;99.90;;;;;;5042978;28;20065;-80
2023/01/24 07:03:16;;;;;;;1999.90;999.90;;;2.70;99.90;;;;;;5045964;28;20034;-82
2023/01/24 07:05:42;;;;;;;1999.90;999.90;;;2.70;99.90;;;;;;5044305;28;20042;-79
2023/01/24 07:08:08;;;;;;;1999.90;999.90;;;2.70;99.90;;;;;;5044726;28;20068;-79
2023/01/24 07:10:33;;;;;;;1999.90;999.90;;;2.70;99.90;;;;;;5045225;28;20081;-81
2023/01/24 07:12:59;;;;;;;1999.90;999.90;;;2.70;99.90;;;;;;5035375;28;20025;-80
2023/01/24 07:15:25;;;;;;;1999.90;999.90;;;2.70;99.90;;;;;;5036316;28;20487;-80
2023/01/24 07:17:51;;;;;;;1999.90;999.90;;;2.70;99.90;;;;;;5035918;28;20503;-80
2023/01/24 07:20:17;;;;;;;1999.90;999.90;;;2.70;99.90;;;;;;5018574;28;20044;-80
2023/01/24 07:22:43;;;;;;;1999.90;999.90;;;2.70;99.90;;;;;;5036555;28;20034;-81
2023/01/24 07:25:14;;;;;;;1999.90;999.90;;;2.70;99.90;;;;;;5036738;28;20038;-81
2023/01/24 07:27:44;;;;;;;1999.90;999.90;;;2.70;99.90;;;;;;5036930;28;20862;-80
2023/01/24 07:30:11;;;;;;;1999.90;999.90;;;2.70;99.90;;;;;;5034743;28;20121;-81
2023/01/24 07:32:38;;;;;;;1999.90;999.90;;;2.70;99.90;;;;;;5037776;28;20091;-81
2023/01/24 07:35:04;;;;;;;1999.90;999.90;;;2.70;99.90;;;;;;5054968;28;20495;-81
2023/01/24 07:37:33;;;;;;;1999.90;999.90;;;2.70;99.90;;;;;;5053741;28;20128;-80
2023/01/24 07:39:59;;;;;;;1999.90;999.90;;;2.70;99.90;;;;;;5055179;28;20037;-81
2023/01/24 07:42:24;;;;;;;1999.90;999.90;;;2.70;99.90;;;;;;5054201;28;20034;-81
2023/01/24 07:44:50;;;;;;;1999.90;999.90;;;2.70;99.90;;;;;;5055412;28;20095;-81
2023/01/24 07:47:17;;;;;;;1999.90;999.90;;;2.80;99.90;;;;;;5055948;28;20037;-81
2023/01/24 07:49:42;;;;;;;1999.90;999.90;;;2.70;99.90;;;;;;5055199;28;20037;-81
2023/01/24 07:52:08;;;;;;;1999.90;999.90;;;2.70;99.90;;;;;;5053127;28;20057;-81
2023/01/24 07:54:33;;;;;;;1999.90;999.90;;;2.70;99.90;;;;;;5055536;28;20104;-81
2023/01/24 07:56:59;;;;;;;1999.90;999.90;;;2.80;99.90;;;;;;5053622;28;20128;-81
2023/01/24 07:59:25;;;;;;;1999.90;999.90;;;2.80;99.90;;;;;;5055191;28;20029;-81
2023/01/24 08:01:51;;;;;;;1999.90;999.90;;;2.90;99.90;;;;;;5054008;28;20108;-81
2023/01/24 08:04:16;;;;;;;1999.90;999.90;;;2.80;99.90;;;;;;5054461;28;20033;-80
2023/01/24 08:07:16;;;;;;;1999.90;999.90;;;2.80;99.90;;;;;;5055191;28;20043;-79
2023/01/24 08:09:28;;;;;;;1999.90;999.90;;;2.90;99.90;;;;;;5054146;28;20040;-80
2023/01/24 08:11:54;;;;;;;1999.90;999.90;;;2.90;99.90;;;;;;5053638;28;20040;-82
2023/01/24 08:14:21;;;;;;;1999.90;999.90;;;2.90;99.90;;;;;;5045650;28;20040;-81
2023/01/24 08:16:47;;;;;;;1999.90;999.90;;;2.90;99.90;;;;;;5033790;28;20042;-80
2023/01/24 08:19:13;;;;;;;1999.90;999.90;;;2.90;99.90;;;;;;5035737;28;20057;-81
2023/01/24 08:21:38;;;;;;;1999.90;999.90;;;2.90;99.90;;;;;;5054641;28;20033;-82
2023/01/24 08:24:04;;;;;;;1999.90;999.90;;;2.90;99.90;;;;;;5053979;28;20033;-82
2023/01/24 08:26:30;;;;;;;1999.90;999.90;;;2.90;99.90;;;;;;5053731;28;20106;-82
2023/01/24 08:28:55;;;;;;;1999.90;999.90;;;2.90;99.90;;;;;;5055230;28;20068;-82
2023/01/24 08:31:21;;;;;;;1999.90;999.90;;;3.00;99.90;;;;;;5053640;28;20420;-78
2023/01/24 08:33:46;;;;;;;1999.90;999.90;;;3.00;99.90;;;;;;5040184;28;20030;-79
2023/01/24 08:36:12;;;;;;;1999.90;999.90;;;3.00;99.90;;;;;;5051177;28;20037;-78
2023/01/24 08:38:37;;;;;;;1999.90;999.90;;;3.00;99.90;;;;;;5053937;28;20057;-79
2023/01/24 08:41:04;;;;;;;1999.90;999.90;;;3.00;99.90;;;;;;5051497;28;20044;-78
2023/01/24 08:43:30;;;;;;;1999.90;999.90;;;3.10;99.90;;;;;;5045256;28;20559;-78
2023/01/24 08:45:56;;;;;;;1999.90;999.90;;;3.10;99.90;;;;;;5053922;28;20033;-78
2023/01/24 08:48:22;;;;;;;1999.90;999.90;;;3.10;99.90;;;;;;5053951;28;20038;-78
2023/01/24 08:50:47;;;;;;;1999.90;999.90;;;3.10;99.90;;;;;;5053646;28;20764;-78
2023/01/24 08:53:14;;;;;;;1999.90;999.90;;;3.10;99.90;;;;;;5053867;28;20095;-78
2023/01/24 08:55:40;;;;;;;1999.90;999.90;;;3.10;99.90;;;;;;5053856;28;20029;-78
2023/01/24 08:58:06;;;;;;;1999.90;999.90;;;3.20;99.90;;;;;;5054001;28;20041;-79
2023/01/24 09:00:32;;;;;;;1999.90;999.90;;;3.20;99.90;;;;;;5053955;28;20386;-78
2023/01/24 09:03:00;;;;;;;1999.90;999.90;;;3.20;99.90;;;;;;5054689;28;20521;-78
2023/01/24 09:05:27;;;;;;;1999.90;999.90;;;3.30;99.90;;;;;;5055948;28;20030;-78
2023/01/24 09:07:52;;;;;;;1999.90;999.90;;;3.30;99.90;;;;;;5056984;28;20038;-78
2023/01/24 09:10:18;;;;;;;1999.90;999.90;;;3.20;99.90;;;;;;5056940;28;20048;-79
2023/01/24 09:12:43;;;;;;;1999.90;999.90;;;3.20;99.90;;;;;;5057277;28;20065;-79
2023/01/24 09:15:09;;;;;;;1999.90;999.90;;;3.20;99.90;;;;;;5057254;28;20034;-78
2023/01/24 09:17:37;;;;;;;1999.90;999.90;;;3.20;99.90;;;;;;5056927;28;20037;-78
2023/01/24 09:20:03;;;;;;;1999.90;999.90;;;3.30;99.90;;;;;;5055404;28;20034;-78
2023/01/24 09:22:28;;;;;;;1999.90;999.90;;;3.30;99.90;;;;;;5056962;28;20055;-78
2023/01/24 09:24:54;;;;;;;1999.90;999.90;;;3.30;99.90;;;;;;5055403;28;20449;-78
2023/01/24 09:27:19;;;;;;;1999.90;999.90;;;3.30;99.90;;;;;;5056778;28;20038;-78
2023/01/24 09:29:45;;;;;;;1999.90;999.90;;;3.30;99.90;;;;;;5055149;28;20037;-78
2023/01/24 09:32:12;;;;;;;1999.90;999.90;;;3.40;99.90;;;;;;5055285;28;20039;-78
2023/01/24 09:34:40;;;;;;;1999.90;999.90;;;3.40;99.90;;;;;;5056801;28;20171;-78
2023/01/24 09:37:06;;;;;;;1999.90;999.90;;;3.40;99.90;;;;;;5055259;28;20092;-78
2023/01/24 09:39:31;;;;;;;1999.90;999.90;;;3.50;99.90;;;;;;5056602;28;20112;-79
2023/01/24 09:42:16;;;;;;;1999.90;999.90;;;3.40;99.90;;;;;;5056804;28;20480;-78
2023/01/24 09:44:54;;;;;;;1999.90;999.90;;;3.40;99.90;;;;;;5055225;28;20044;-78
2023/01/24 09:47:23;;;;;;;1999.90;999.90;;;3.50;99.90;;;;;;5057672;28;20048;-80
2023/01/24 09:49:59;;;;;;;1999.90;999.90;;;3.50;99.90;;;;;;5057187;28;20030;-79
2023/01/24 09:52:34;;;;;;;1999.90;999.90;;;3.40;99.90;;;;;;5058005;28;20030;-80
2023/01/24 09:55:08;;;;;;;1999.90;999.90;;;3.50;99.90;;;;;;5057368;28;20026;-80
2023/01/24 09:57:42;;;;;;;1999.90;999.90;;;3.50;99.90;;;;;;5056514;28;20045;-80
2023/01/24 10:00:26;;;;;;;1999.90;999.90;;;3.50;99.90;;;;;;5056547;28;20033;-79
2023/01/24 10:02:55;;;;;;;1999.90;999.90;;;3.50;99.90;;;;;;5055242;28;20042;-80
2023/01/24 10:05:24;;;;;;;1999.90;999.90;;;3.50;99.90;;;;;;5056964;28;20925;-80
2023/01/24 10:08:08;;;;;;;1999.90;999.90;;;3.60;99.90;;;;;;5055336;28;20033;-81
2023/01/24 10:10:42;;;;;;;1999.90;999.90;;;3.60;99.90;;;;;;5055001;28;20438;-80
2023/01/24 10:13:14;;;;;;;1999.90;999.90;;;3.70;99.90;;;;;;5057362;28;20045;-80
2023/01/24 10:15:52;;;;;;;1999.90;999.90;;;3.80;99.90;;;;;;5056292;28;20029;-80
2023/01/24 10:18:48;;;;;;;1999.90;999.90;;;3.80;99.90;;;;;;5055451;28;20420;-80
2023/01/24 10:21:49;;;;;;;1999.90;999.90;;;3.80;99.90;;;;;;5056304;28;20113;-80
2023/01/24 10:24:28;;;;;;;1999.90;999.90;;;3.90;99.90;;;;;;5044653;28;20496;-80
2023/01/24 10:26:54;;;;;;;1999.90;999.90;;;4.00;99.90;;;;;;5041851;28;20473;-80
2023/01/24 10:29:33;;;;;;;1999.90;999.90;;;4.10;99.90;;;;;;5057313;28;20033;-80
2023/01/24 10:32:19;;;;;;;1999.90;999.90;;;4.10;99.90;;;;;;5056102;28;20029;-80
2023/01/24 10:35:02;;;;;;;1999.90;999.90;;;4.10;99.90;;;;;;5056477;28;20116;-80
2023/01/24 10:37:34;;;;;;;1999.90;999.90;;;4.10;99.90;;;;;;5056646;28;20061;-80
2023/01/24 10:40:00;;;;;;;1999.90;999.90;;;4.20;99.90;;;;;;5054525;28;20045;-80
2023/01/24 10:42:26;;;;;;;1999.90;999.90;;;4.20;99.90;;;;;;5055070;28;20517;-80
2023/01/24 10:44:55;;;;;;;1999.90;999.90;;;4.20;99.90;;;;;;5056816;28;20064;-80
2023/01/24 10:47:30;;;;;;;1999.90;999.90;;;4.20;99.90;;;;;;5057255;28;20033;-80
2023/01/24 10:50:01;;;;;;;1999.90;999.90;;;4.10;99.90;;;;;;5054049;28;20039;-80
2023/01/24 10:52:27;;;;;;;1999.90;999.90;;;4.10;99.90;;;;;;5055507;28;20038;-80
2023/01/24 10:54:57;;;;;;;1999.90;999.90;;;4.10;99.90;;;;;;5056505;28;20029;-81
2023/01/24 10:57:29;;;;;;;1999.90;999.90;;;4.30;99.90;;;;;;5054368;28;20045;-78
2023/01/24 10:59:55;;;;;;;1999.90;999.90;;;4.30;99.90;;;;;;5053750;28;20033;-78
2023/01/24 11:02:23;;;;;;;1999.90;999.90;;;4.40;99.90;;;;;;5055487;28;20045;-80
2023/01/24 11:04:59;;;;;;;1999.90;999.90;;;4.40;99.90;;;;;;5056159;28;20080;-80
2023/01/24 11:07:31;;;;;;;1999.90;999.90;;;4.40;99.90;;;;;;5046497;28;20518;-80
2023/01/24 11:10:01;;;;;;;1999.90;999.90;;;4.40;99.90;;;;;;5045890;28;20030;-79
2023/01/24 11:12:28;;;;;;;1999.90;999.90;;;4.40;99.90;;;;;;5033898;28;20133;-80
2023/01/24 11:14:53;;;;;;;1999.90;999.90;;;4.30;99.90;;;;;;5034352;28;20030;-80
2023/01/24 11:17:35;;;;;;;1999.90;999.90;;;4.30;99.90;;;;;;5035638;28;20399;-80
2023/01/24 11:20:20;;;;;;;1999.90;999.90;;;4.50;99.90;;;;;;5034653;28;20117;-79
2023/01/24 11:22:49;;;;;;;1999.90;999.90;;;4.50;99.90;;;;;;5050747;28;20499;-80
2023/01/24 11:25:15;;;;;;;1999.90;999.90;;;4.40;99.90;;;;;;5054449;28;20120;-81
2023/01/24 11:27:48;;;;;;;1999.90;999.90;;;4.40;99.90;;;;;;5054584;28;20120;-80
2023/01/24 11:30:18;;;;;;;1999.90;999.90;;;4.40;99.90;;;;;;5058978;28;20033;-80
2023/01/24 11:32:43;;;;;;;1999.90;999.90;;;4.40;99.90;;;;;;5061125;28;20041;-80
2023/01/24 11:35:09;;;;;;;1999.90;999.90;;;4.30;99.90;;;;;;5059973;28;20033;-80
2023/01/24 11:38:03;;;;;;;1999.90;999.90;;;4.30;99.90;;;;;;5057801;28;20124;-77
2023/01/24 11:40:34;;;;;;;1999.90;999.90;;;4.30;99.90;;;;;;5054571;28;20751;-80
2023/01/24 11:43:20;;;;;;;1999.90;999.90;;;4.20;99.90;;;;;;5054536;28;20061;-79
2023/01/24 11:46:18;;;;;;;1999.90;999.90;;;4.20;99.90;;;;;;5055699;28;20060;-81
2023/01/24 11:48:54;;;;;;;1999.90;999.90;;;4.20;99.90;;;;;;5054683;28;20030;-80
2023/01/24 11:51:49;;;;;;;1999.90;999.90;;;4.30;99.90;;;;;;5055443;28;20511;-81
2023/01/24 11:54:23;;;;;;;1999.90;999.90;;;4.40;99.90;;;;;;5055861;28;20033;-80
2023/01/24 11:57:01;;;;;;;1999.90;999.90;;;4.60;99.90;;;;;;5055177;28;20749;-80
2023/01/24 11:59:51;;;;;;;1999.90;999.90;;;4.50;99.90;;;;;;5055356;28;20478;-80
2023/01/24 12:02:29;;;;;;;1999.90;999.90;;;4.50;99.90;;;;;;5053570;28;20033;-80
2023/01/24 12:05:02;;;;;;;1999.90;999.90;;;4.50;99.90;;;;;;5054904;28;20033;-79
2023/01/24 12:07:55;;;;;;;1999.90;999.90;;;4.50;99.90;;;;;;5054857;28;20092;-80
2023/01/24 12:10:36;;;;;;;1999.90;999.90;;;4.60;99.90;;;;;;5035096;28;20505;-79
2023/01/24 12:13:13;;;;;;;1999.90;999.90;;;4.50;99.90;;;;;;5020676;28;20148;-80
2023/01/24 12:16:00;;;;;;;1999.90;999.90;;;4.60;99.90;;;;;;5053297;28;20092;-79
2023/01/24 12:18:47;;;;;;;1999.90;999.90;;;4.50;99.90;;;;;;5043465;28;20065;-79
2023/01/24 12:21:13;;;;;;;1999.90;999.90;;;4.60;99.90;;;;;;5055165;28;20034;-79
2023/01/24 12:24:00;;;;;;;1999.90;999.90;;;4.60;99.90;;;;;;5053548;28;20037;-80
2023/01/24 12:26:30;;;;;;;1999.90;999.90;;;4.60;99.90;;;;;;5052694;28;20060;-79
2023/01/24 12:29:05;;;;;;;1999.90;999.90;;;4.60;99.90;;;;;;5054957;28;20044;-79
2023/01/24 12:31:47;;;;;;;1999.90;999.90;;;4.50;99.90;;;;;;5056765;28;20076;-79
2023/01/24 12:34:47;;;;;;;1999.90;999.90;;;4.50;99.90;;;;;;5056020;28;20068;-79
2023/01/24 12:37:19;;;;;;;1999.90;999.90;;;4.40;99.90;;;;;;5055941;28;20124;-79
2023/01/24 12:39:50;;;;;;;1999.90;999.90;;;4.30;99.90;;;;;;5036410;28;20034;-80
2023/01/24 12:42:21;;;;;;;1999.90;999.90;;;4.40;99.90;;;;;;5032953;28;20041;-80
2023/01/24 12:45:01;;;;;;;1999.90;999.90;;;4.50;99.90;;;;;;5032736;28;20030;-80
2023/01/24 12:47:39;;;;;;;1999.90;999.90;;;4.40;99.90;;;;;;5079993;22;20488;-73
2023/01/24 12:50:17;;;;;;;1999.90;999.90;;;4.40;99.90;;;;;;5092394;28;20048;-73
2023/01/24 12:52:55;;;;;;;1999.90;999.90;;;4.40;99.90;;;;;;5085553;28;20029;-74
2023/01/24 12:55:30;;;;;;;1999.90;999.90;;;4.30;99.90;;;;;;5078136;28;20047;-74
2023/01/24 12:58:04;;;;;;;1999.90;999.90;;;4.30;99.90;;;;;;5089360;28;20037;-74